sensor_id;sensor_type;location;lat;lon;timestamp;temperature;humidity
52415;DHT22;38340;52.964;6.086;2023-03-23T00:01:08;10.80;99.90
52415;DHT22;38340;52.964;6.086;2023-03-23T00:03:45;10.90;99.90
52415;DHT22;38340;52.964;6.086;2023-03-23T00:06:11;10.90;99.90
52415;DHT22;38340;52.964;6.086;2023-03-23T00:08:44;11.00;99.90
52415;DHT22;38340;52.964;6.086;2023-03-23T00:11:15;10.90;99.90
52415;DHT22;38340;52.964;6.086;2023-03-23T00:13:42;10.90;99.90
52415;DHT22;38340;52.964;6.086;2023-03-23T00:16:09;11.00;99.90
52415;DHT22;38340;52.964;6.086;2023-03-23T00:18:49;11.00;99.90
52415;DHT22;38340;52.964;6.086;2023-03-23T00:21:18;11.00;99.90
52415;DHT22;38340;52.964;6.086;2023-03-23T00:23:44;11.00;99.90
52415;DHT22;38340;52.964;6.086;2023-03-23T00:26:11;11.00;99.90
52415;DHT22;38340;52.964;6.086;2023-03-23T00:28:38;10.80;99.90
52415;DHT22;38340;52.964;6.086;2023-03-23T00:31:07;10.50;99.90
52415;DHT22;38340;52.964;6.086;2023-03-23T00:33:34;10.40;99.90
52415;DHT22;38340;52.964;6.086;2023-03-23T00:36:04;10.20;99.90
52415;DHT22;38340;52.964;6.086;2023-03-23T00:38:31;10.00;99.90
52415;DHT22;38340;52.964;6.086;2023-03-23T00:40:57;9.90;99.90
52415;DHT22;38340;52.964;6.086;2023-03-23T00:43:24;9.80;99.90
52415;DHT22;38340;52.964;6.086;2023-03-23T00:45:55;10.20;99.90
52415;DHT22;38340;52.964;6.086;2023-03-23T00:48:24;10.40;99.90
52415;DHT22;38340;52.964;6.086;2023-03-23T00:50:51;10.50;99.90
52415;DHT22;38340;52.964;6.086;2023-03-23T00:53:17;10.60;99.90
52415;DHT22;38340;52.964;6.086;2023-03-23T00:55:45;10.60;99.90
52415;DHT22;38340;52.964;6.086;2023-03-23T00:58:12;10.70;99.90
52415;DHT22;38340;52.964;6.086;2023-03-23T01:00:38;10.60;99.90
52415;DHT22;38340;52.964;6.086;2023-03-23T01:03:05;10.70;99.90
52415;DHT22;38340;52.964;6.086;2023-03-23T01:05:35;10.70;99.90
52415;DHT22;38340;52.964;6.086;2023-03-23T01:08:03;10.70;99.90
52415;DHT22;38340;52.964;6.086;2023-03-23T01:10:29;10.80;99.90
52415;DHT22;38340;52.964;6.086;2023-03-23T01:12:59;10.80;99.90
52415;DHT22;38340;52.964;6.086;2023-03-23T01:15:27;10.80;99.90
52415;DHT22;38340;52.964;6.086;2023-03-23T01:17:53;10.80;99.90
52415;DHT22;38340;52.964;6.086;2023-03-23T01:20:19;10.90;99.90
52415;DHT22;38340;52.964;6.086;2023-03-23T01:22:45;10.90;99.90
52415;DHT22;38340;52.964;6.086;2023-03-23T01:25:12;10.90;99.90
52415;DHT22;38340;52.964;6.086;2023-03-23T01:27:39;10.90;99.90
52415;DHT22;38340;52.964;6.086;2023-03-23T01:30:07;10.90;99.90
52415;DHT22;38340;52.964;6.086;2023-03-23T01:32:34;10.90;99.90
52415;DHT22;38340;52.964;6.086;2023-03-23T01:34:59;10.90;99.90
52415;DHT22;38340;52.964;6.086;2023-03-23T01:37:25;10.90;99.90
52415;DHT22;38340;52.964;6.086;2023-03-23T01:39:56;10.90;99.90
52415;DHT22;38340;52.964;6.086;2023-03-23T01:42:29;11.00;99.90
52415;DHT22;38340;52.964;6.086;2023-03-23T01:45:37;11.00;99.90
52415;DHT22;38340;52.964;6.086;2023-03-23T01:47:52;11.00;99.90
52415;DHT22;38340;52.964;6.086;2023-03-23T01:50:22;11.00;99.90
52415;DHT22;38340;52.964;6.086;2023-03-23T01:52:53;11.00;99.90
52415;DHT22;38340;52.964;6.086;2023-03-23T01:55:21;11.00;99.90
52415;DHT22;38340;52.964;6.086;2023-03-23T01:57:47;11.00;99.90
52415;DHT22;38340;52.964;6.086;2023-03-23T02:00:15;11.00;99.90
52415;DHT22;38340;52.964;6.086;2023-03-23T02:02:43;11.00;99.90
52415;DHT22;38340;52.964;6.086;2023-03-23T02:05:34;11.00;99.90
52415;DHT22;38340;52.964;6.086;2023-03-23T02:08:04;11.00;99.90
52415;DHT22;38340;52.964;6.086;2023-03-23T02:10:32;11.00;99.90
52415;DHT22;38340;52.964;6.086;2023-03-23T02:12:59;11.00;99.90
52415;DHT22;38340;52.964;6.086;2023-03-23T02:15:48;11.00;99.90
52415;DHT22;38340;52.964;6.086;2023-03-23T02:18:53;11.00;99.90
52415;DHT22;38340;52.964;6.086;2023-03-23T02:21:41;10.90;99.90
52415;DHT22;38340;52.964;6.086;2023-03-23T02:24:31;10.90;99.90
52415;DHT22;38340;52.964;6.086;2023-03-23T02:27:20;10.90;99.90
52415;DHT22;38340;52.964;6.086;2023-03-23T02:33:12;11.00;99.90
52415;DHT22;38340;52.964;6.086;2023-03-23T02:35:50;11.00;99.90
52415;DHT22;38340;52.964;6.086;2023-03-23T02:38:30;11.00;99.90
52415;DHT22;38340;52.964;6.086;2023-03-23T02:40:59;11.00;99.90
52415;DHT22;38340;52.964;6.086;2023-03-23T02:43:28;11.00;99.90
52415;DHT22;38340;52.964;6.086;2023-03-23T02:45:55;11.00;99.90
52415;DHT22;38340;52.964;6.086;2023-03-23T02:48:24;11.00;99.90
52415;DHT22;38340;52.964;6.086;2023-03-23T02:50:52;11.00;99.90
52415;DHT22;38340;52.964;6.086;2023-03-23T02:53:21;11.00;99.90
52415;DHT22;38340;52.964;6.086;2023-03-23T02:55:49;11.00;99.90
52415;DHT22;38340;52.964;6.086;2023-03-23T02:58:19;11.00;99.90
52415;DHT22;38340;52.964;6.086;2023-03-23T03:00:45;11.00;99.90
52415;DHT22;38340;52.964;6.086;2023-03-23T03:03:17;11.00;99.90
52415;DHT22;38340;52.964;6.086;2023-03-23T03:06:04;11.00;99.90
52415;DHT22;38340;52.964;6.086;2023-03-23T03:11:12;11.00;99.90
52415;DHT22;38340;52.964;6.086;2023-03-23T03:17:19;11.00;99.90
52415;DHT22;38340;52.964;6.086;2023-03-23T03:19:48;11.00;99.90
52415;DHT22;38340;52.964;6.086;2023-03-23T03:22:17;11.00;99.90
52415;DHT22;38340;52.964;6.086;2023-03-23T03:24:43;11.00;99.90
52415;DHT22;38340;52.964;6.086;2023-03-23T03:27:12;11.00;99.90
52415;DHT22;38340;52.964;6.086;2023-03-23T03:29:41;11.00;99.90
52415;DHT22;38340;52.964;6.086;2023-03-23T03:32:11;11.00;99.90
52415;DHT22;38340;52.964;6.086;2023-03-23T03:34:38;11.00;99.90
52415;DHT22;38340;52.964;6.086;2023-03-23T03:37:05;10.90;99.90
52415;DHT22;38340;52.964;6.086;2023-03-23T03:39:35;10.90;99.90
52415;DHT22;38340;52.964;6.086;2023-03-23T03:42:02;10.90;99.90
52415;DHT22;38340;52.964;6.086;2023-03-23T03:44:28;10.90;99.90
52415;DHT22;38340;52.964;6.086;2023-03-23T03:46:54;10.80;99.90
52415;DHT22;38340;52.964;6.086;2023-03-23T03:49:20;10.80;99.90
52415;DHT22;38340;52.964;6.086;2023-03-23T03:51:45;10.70;99.90
52415;DHT22;38340;52.964;6.086;2023-03-23T03:54:11;10.70;99.90
52415;DHT22;38340;52.964;6.086;2023-03-23T03:56:37;10.70;99.90
52415;DHT22;38340;52.964;6.086;2023-03-23T03:59:06;10.70;99.90
52415;DHT22;38340;52.964;6.086;2023-03-23T04:01:34;10.60;99.90
52415;DHT22;38340;52.964;6.086;2023-03-23T04:04:00;10.60;99.90
52415;DHT22;38340;52.964;6.086;2023-03-23T04:06:26;10.60;99.90
52415;DHT22;38340;52.964;6.086;2023-03-23T04:08:57;10.60;99.90
52415;DHT22;38340;52.964;6.086;2023-03-23T04:11:25;10.60;99.90
52415;DHT22;38340;52.964;6.086;2023-03-23T04:13:51;10.60;99.90
52415;DHT22;38340;52.964;6.086;2023-03-23T04:16:17;10.60;99.90
52415;DHT22;38340;52.964;6.086;2023-03-23T04:18:43;10.60;99.90
52415;DHT22;38340;52.964;6.086;2023-03-23T04:21:09;10.70;99.90
52415;DHT22;38340;52.964;6.086;2023-03-23T04:23:36;10.70;99.90
52415;DHT22;38340;52.964;6.086;2023-03-23T04:26:03;10.70;99.90
52415;DHT22;38340;52.964;6.086;2023-03-23T04:28:29;10.70;99.90
52415;DHT22;38340;52.964;6.086;2023-03-23T04:30:59;10.70;99.90
52415;DHT22;38340;52.964;6.086;2023-03-23T04:33:28;10.70;99.90
52415;DHT22;38340;52.964;6.086;2023-03-23T04:35:56;10.70;99.90
52415;DHT22;38340;52.964;6.086;2023-03-23T04:38:27;10.60;99.90
52415;DHT22;38340;52.964;6.086;2023-03-23T04:40:54;10.50;99.90
52415;DHT22;38340;52.964;6.086;2023-03-23T04:43:21;10.50;99.90
52415;DHT22;38340;52.964;6.086;2023-03-23T04:45:56;10.50;99.90
52415;DHT22;38340;52.964;6.086;2023-03-23T04:48:27;10.40;99.90
52415;DHT22;38340;52.964;6.086;2023-03-23T04:50:55;10.40;99.90
52415;DHT22;38340;52.964;6.086;2023-03-23T04:53:21;10.40;99.90
52415;DHT22;38340;52.964;6.086;2023-03-23T04:55:48;10.40;99.90
52415;DHT22;38340;52.964;6.086;2023-03-23T04:58:15;10.30;99.90
52415;DHT22;38340;52.964;6.086;2023-03-23T05:00:41;10.30;99.90
52415;DHT22;38340;52.964;6.086;2023-03-23T05:03:10;10.20;99.90
52415;DHT22;38340;52.964;6.086;2023-03-23T05:05:36;10.20;99.90
52415;DHT22;38340;52.964;6.086;2023-03-23T05:08:01;10.20;99.90
52415;DHT22;38340;52.964;6.086;2023-03-23T05:10:27;10.20;99.90
52415;DHT22;38340;52.964;6.086;2023-03-23T05:12:54;10.10;99.90
52415;DHT22;38340;52.964;6.086;2023-03-23T05:15:20;10.10;99.90
52415;DHT22;38340;52.964;6.086;2023-03-23T05:17:46;10.10;99.90
52415;DHT22;38340;52.964;6.086;2023-03-23T05:20:15;10.10;99.90
52415;DHT22;38340;52.964;6.086;2023-03-23T05:22:44;10.10;99.90
52415;DHT22;38340;52.964;6.086;2023-03-23T05:25:10;10.10;99.90
52415;DHT22;38340;52.964;6.086;2023-03-23T05:27:37;10.10;99.90
52415;DHT22;38340;52.964;6.086;2023-03-23T05:30:04;10.10;99.90
52415;DHT22;38340;52.964;6.086;2023-03-23T05:32:30;10.10;99.90
52415;DHT22;38340;52.964;6.086;2023-03-23T05:34:57;10.10;99.90
52415;DHT22;38340;52.964;6.086;2023-03-23T05:37:25;10.10;99.90
52415;DHT22;38340;52.964;6.086;2023-03-23T05:39:52;10.10;99.90
52415;DHT22;38340;52.964;6.086;2023-03-23T05:42:20;10.10;99.90
52415;DHT22;38340;52.964;6.086;2023-03-23T05:44:46;10.10;99.90
52415;DHT22;38340;52.964;6.086;2023-03-23T05:47:12;10.20;99.90
52415;DHT22;38340;52.964;6.086;2023-03-23T05:49:38;10.20;99.90
52415;DHT22;38340;52.964;6.086;2023-03-23T05:52:04;10.20;99.90
52415;DHT22;38340;52.964;6.086;2023-03-23T05:54:30;10.20;99.90
52415;DHT22;38340;52.964;6.086;2023-03-23T05:56:55;10.10;99.90
52415;DHT22;38340;52.964;6.086;2023-03-23T05:59:21;10.10;99.90
52415;DHT22;38340;52.964;6.086;2023-03-23T06:01:47;10.10;99.90
52415;DHT22;38340;52.964;6.086;2023-03-23T06:04:12;10.20;99.90
52415;DHT22;38340;52.964;6.086;2023-03-23T06:06:39;10.20;99.90
52415;DHT22;38340;52.964;6.086;2023-03-23T06:09:07;10.20;99.90
52415;DHT22;38340;52.964;6.086;2023-03-23T06:11:32;10.20;99.90
52415;DHT22;38340;52.964;6.086;2023-03-23T06:13:59;10.20;99.90
52415;DHT22;38340;52.964;6.086;2023-03-23T06:16:25;10.20;99.90
52415;DHT22;38340;52.964;6.086;2023-03-23T06:18:50;10.20;99.90
52415;DHT22;38340;52.964;6.086;2023-03-23T06:21:16;10.20;99.90
52415;DHT22;38340;52.964;6.086;2023-03-23T06:23:44;10.20;99.90
52415;DHT22;38340;52.964;6.086;2023-03-23T06:26:12;10.10;99.90
52415;DHT22;38340;52.964;6.086;2023-03-23T06:28:40;10.20;99.90
52415;DHT22;38340;52.964;6.086;2023-03-23T06:31:06;10.10;99.90
52415;DHT22;38340;52.964;6.086;2023-03-23T06:33:37;10.10;99.90
52415;DHT22;38340;52.964;6.086;2023-03-23T06:36:04;10.20;99.90
52415;DHT22;38340;52.964;6.086;2023-03-23T06:38:32;10.20;99.90
52415;DHT22;38340;52.964;6.086;2023-03-23T06:40:58;10.30;99.90
52415;DHT22;38340;52.964;6.086;2023-03-23T06:43:24;10.30;99.90
52415;DHT22;38340;52.964;6.086;2023-03-23T06:45:50;10.30;99.90
52415;DHT22;38340;52.964;6.086;2023-03-23T06:48:17;10.30;99.90
52415;DHT22;38340;52.964;6.086;2023-03-23T06:50:44;10.20;99.90
52415;DHT22;38340;52.964;6.086;2023-03-23T06:53:10;10.20;99.90
52415;DHT22;38340;52.964;6.086;2023-03-23T06:55:37;10.20;99.90
52415;DHT22;38340;52.964;6.086;2023-03-23T06:58:07;10.20;99.90
52415;DHT22;38340;52.964;6.086;2023-03-23T07:00:34;10.20;99.90
52415;DHT22;38340;52.964;6.086;2023-03-23T07:02:59;10.20;99.90
52415;DHT22;38340;52.964;6.086;2023-03-23T07:05:25;10.20;99.90
52415;DHT22;38340;52.964;6.086;2023-03-23T07:07:51;10.20;99.90
52415;DHT22;38340;52.964;6.086;2023-03-23T07:10:18;10.20;99.90
52415;DHT22;38340;52.964;6.086;2023-03-23T07:12:43;10.20;99.90
52415;DHT22;38340;52.964;6.086;2023-03-23T07:15:09;10.20;99.90
52415;DHT22;38340;52.964;6.086;2023-03-23T07:17:37;10.20;99.90
52415;DHT22;38340;52.964;6.086;2023-03-23T07:20:04;10.30;99.90
52415;DHT22;38340;52.964;6.086;2023-03-23T07:22:30;10.20;99.90
52415;DHT22;38340;52.964;6.086;2023-03-23T07:24:56;10.20;99.90
52415;DHT22;38340;52.964;6.086;2023-03-23T07:27:21;10.20;99.90
52415;DHT22;38340;52.964;6.086;2023-03-23T07:29:47;10.30;99.90
52415;DHT22;38340;52.964;6.086;2023-03-23T07:32:13;10.30;99.90
52415;DHT22;38340;52.964;6.086;2023-03-23T07:34:39;10.40;99.90
52415;DHT22;38340;52.964;6.086;2023-03-23T07:37:05;10.40;99.90
52415;DHT22;38340;52.964;6.086;2023-03-23T07:39:31;10.50;99.90
52415;DHT22;38340;52.964;6.086;2023-03-23T07:41:57;10.50;99.90
52415;DHT22;38340;52.964;6.086;2023-03-23T07:44:23;10.50;99.90
52415;DHT22;38340;52.964;6.086;2023-03-23T07:46:49;10.50;99.90
52415;DHT22;38340;52.964;6.086;2023-03-23T07:49:15;10.50;99.90
52415;DHT22;38340;52.964;6.086;2023-03-23T07:51:40;10.60;99.90
52415;DHT22;38340;52.964;6.086;2023-03-23T07:54:06;10.70;99.90
52415;DHT22;38340;52.964;6.086;2023-03-23T07:56:36;10.60;99.90
52415;DHT22;38340;52.964;6.086;2023-03-23T07:59:03;10.70;99.90
52415;DHT22;38340;52.964;6.086;2023-03-23T08:01:30;10.60;99.90
52415;DHT22;38340;52.964;6.086;2023-03-23T08:03:56;10.70;99.90
52415;DHT22;38340;52.964;6.086;2023-03-23T08:06:24;10.70;99.90
52415;DHT22;38340;52.964;6.086;2023-03-23T08:08:50;10.80;99.90
52415;DHT22;38340;52.964;6.086;2023-03-23T08:11:17;10.80;99.90
52415;DHT22;38340;52.964;6.086;2023-03-23T08:13:43;10.90;99.90
52415;DHT22;38340;52.964;6.086;2023-03-23T08:16:09;10.80;99.90
52415;DHT22;38340;52.964;6.086;2023-03-23T08:18:36;10.80;99.90
52415;DHT22;38340;52.964;6.086;2023-03-23T08:21:04;10.90;99.90
52415;DHT22;38340;52.964;6.086;2023-03-23T08:23:31;10.80;99.90
52415;DHT22;38340;52.964;6.086;2023-03-23T08:25:57;10.80;99.90
52415;DHT22;38340;52.964;6.086;2023-03-23T08:28:23;10.80;99.90
52415;DHT22;38340;52.964;6.086;2023-03-23T08:30:49;10.80;99.90
52415;DHT22;38340;52.964;6.086;2023-03-23T08:33:15;10.70;99.90
52415;DHT22;38340;52.964;6.086;2023-03-23T08:35:41;10.80;99.90
52415;DHT22;38340;52.964;6.086;2023-03-23T08:38:10;10.80;99.90
52415;DHT22;38340;52.964;6.086;2023-03-23T08:40:37;11.00;99.90
52415;DHT22;38340;52.964;6.086;2023-03-23T08:43:04;11.20;99.90
52415;DHT22;38340;52.964;6.086;2023-03-23T08:45:29;11.30;99.90
52415;DHT22;38340;52.964;6.086;2023-03-23T08:47:55;11.50;99.90
52415;DHT22;38340;52.964;6.086;2023-03-23T08:50:25;11.40;99.90
52415;DHT22;38340;52.964;6.086;2023-03-23T08:52:52;11.50;99.90
52415;DHT22;38340;52.964;6.086;2023-03-23T08:55:19;11.50;99.90
52415;DHT22;38340;52.964;6.086;2023-03-23T08:57:45;11.60;99.90
52415;DHT22;38340;52.964;6.086;2023-03-23T09:00:15;11.80;99.90
52415;DHT22;38340;52.964;6.086;2023-03-23T09:02:49;11.80;99.90
52415;DHT22;38340;52.964;6.086;2023-03-23T09:05:17;11.90;99.90
52415;DHT22;38340;52.964;6.086;2023-03-23T09:07:45;11.80;99.90
52415;DHT22;38340;52.964;6.086;2023-03-23T09:10:12;11.80;99.90
52415;DHT22;38340;52.964;6.086;2023-03-23T09:12:39;11.80;99.90
52415;DHT22;38340;52.964;6.086;2023-03-23T09:15:06;11.90;99.90
52415;DHT22;38340;52.964;6.086;2023-03-23T09:17:42;12.00;99.90
52415;DHT22;38340;52.964;6.086;2023-03-23T09:20:09;12.00;99.90
52415;DHT22;38340;52.964;6.086;2023-03-23T09:22:43;12.20;99.90
52415;DHT22;38340;52.964;6.086;2023-03-23T09:25:12;12.20;99.90
52415;DHT22;38340;52.964;6.086;2023-03-23T09:27:39;12.20;99.90
52415;DHT22;38340;52.964;6.086;2023-03-23T09:30:08;12.20;99.90
52415;DHT22;38340;52.964;6.086;2023-03-23T09:32:36;12.20;99.90
52415;DHT22;38340;52.964;6.086;2023-03-23T09:35:04;12.20;99.90
52415;DHT22;38340;52.964;6.086;2023-03-23T09:37:30;12.30;99.90
52415;DHT22;38340;52.964;6.086;2023-03-23T09:39:56;12.60;99.90
52415;DHT22;38340;52.964;6.086;2023-03-23T09:45:41;12.70;99.90
52415;DHT22;38340;52.964;6.086;2023-03-23T09:50:50;12.50;99.90
52415;DHT22;38340;52.964;6.086;2023-03-23T09:53:25;12.40;99.90
52415;DHT22;38340;52.964;6.086;2023-03-23T09:55:53;12.70;99.90
52415;DHT22;38340;52.964;6.086;2023-03-23T09:58:30;12.80;99.90
52415;DHT22;38340;52.964;6.086;2023-03-23T10:01:07;12.70;99.90
52415;DHT22;38340;52.964;6.086;2023-03-23T10:03:43;12.50;99.90
52415;DHT22;38340;52.964;6.086;2023-03-23T10:06:18;12.40;99.90
52415;DHT22;38340;52.964;6.086;2023-03-23T10:08:48;12.40;99.90
52415;DHT22;38340;52.964;6.086;2023-03-23T10:11:23;12.50;99.90
52415;DHT22;38340;52.964;6.086;2023-03-23T10:14:21;12.70;99.90
52415;DHT22;38340;52.964;6.086;2023-03-23T10:17:07;12.70;99.90
52415;DHT22;38340;52.964;6.086;2023-03-23T10:19:49;12.80;99.90
52415;DHT22;38340;52.964;6.086;2023-03-23T10:22:23;12.90;99.90
52415;DHT22;38340;52.964;6.086;2023-03-23T10:28:08;13.20;99.90
52415;DHT22;38340;52.964;6.086;2023-03-23T10:30:48;13.40;99.90
52415;DHT22;38340;52.964;6.086;2023-03-23T10:33:47;13.30;91.20
52415;DHT22;38340;52.964;6.086;2023-03-23T10:39:31;13.00;71.60
52415;DHT22;38340;52.964;6.086;2023-03-23T10:41:57;12.90;70.80
52415;DHT22;38340;52.964;6.086;2023-03-23T10:44:33;12.90;1.00
52415;DHT22;38340;52.964;6.086;2023-03-23T10:47:07;12.80;1.00
52415;DHT22;38340;52.964;6.086;2023-03-23T10:50:04;13.00;35.90
52415;DHT22;38340;52.964;6.086;2023-03-23T10:52:36;13.00;99.90
52415;DHT22;38340;52.964;6.086;2023-03-23T10:55:17;13.10;99.90
52415;DHT22;38340;52.964;6.086;2023-03-23T10:57:45;12.90;99.90
52415;DHT22;38340;52.964;6.086;2023-03-23T11:00:19;12.90;99.90
52415;DHT22;38340;52.964;6.086;2023-03-23T11:02:48;13.10;99.90
52415;DHT22;38340;52.964;6.086;2023-03-23T11:05:27;13.00;99.90
52415;DHT22;38340;52.964;6.086;2023-03-23T11:07:58;13.10;99.90
52415;DHT22;38340;52.964;6.086;2023-03-23T11:10:49;13.40;99.90
52415;DHT22;38340;52.964;6.086;2023-03-23T11:13:17;13.30;99.90
52415;DHT22;38340;52.964;6.086;2023-03-23T11:15:44;13.50;99.90
52415;DHT22;38340;52.964;6.086;2023-03-23T11:18:23;13.60;99.90
52415;DHT22;38340;52.964;6.086;2023-03-23T11:20:54;13.60;99.90
52415;DHT22;38340;52.964;6.086;2023-03-23T11:25:55;13.60;99.90
52415;DHT22;38340;52.964;6.086;2023-03-23T11:28:27;13.70;38.30
52415;DHT22;38340;52.964;6.086;2023-03-23T11:30:54;13.60;1.00
52415;DHT22;38340;52.964;6.086;2023-03-23T11:33:21;13.70;1.00
52415;DHT22;38340;52.964;6.086;2023-03-23T11:35:52;13.50;99.90
52415;DHT22;38340;52.964;6.086;2023-03-23T11:38:21;13.70;99.90
52415;DHT22;38340;52.964;6.086;2023-03-23T11:40:49;13.80;1.00
52415;DHT22;38340;52.964;6.086;2023-03-23T11:43:21;13.90;1.00
52415;DHT22;38340;52.964;6.086;2023-03-23T11:48:54;13.50;63.00
52415;DHT22;38340;52.964;6.086;2023-03-23T11:56:34;13.80;99.90
52415;DHT22;38340;52.964;6.086;2023-03-23T11:59:01;13.80;99.90
52415;DHT22;38340;52.964;6.086;2023-03-23T12:01:50;13.60;99.90
52415;DHT22;38340;52.964;6.086;2023-03-23T12:04:25;13.50;1.00
52415;DHT22;38340;52.964;6.086;2023-03-23T12:09:59;13.50;9.40
52415;DHT22;38340;52.964;6.086;2023-03-23T12:12:44;13.70;1.00
52415;DHT22;38340;52.964;6.086;2023-03-23T12:15:33;13.60;1.00
52415;DHT22;38340;52.964;6.086;2023-03-23T12:21:01;13.70;73.50
52415;DHT22;38340;52.964;6.086;2023-03-23T12:24:03;14.10;99.90
52415;DHT22;38340;52.964;6.086;2023-03-23T12:26:38;14.50;1.00
52415;DHT22;38340;52.964;6.086;2023-03-23T12:34:49;14.60;1.00
52415;DHT22;38340;52.964;6.086;2023-03-23T12:48:46;14.10;99.90
52415;DHT22;38340;52.964;6.086;2023-03-23T12:59:54;13.80;99.90
52415;DHT22;38340;52.964;6.086;2023-03-23T13:02:24;14.10;99.90
52415;DHT22;38340;52.964;6.086;2023-03-23T13:07:37;14.30;71.10
52415;DHT22;38340;52.964;6.086;2023-03-23T13:12:38;14.10;1.00
52415;DHT22;38340;52.964;6.086;2023-03-23T13:20:41;14.20;99.90
52415;DHT22;38340;52.964;6.086;2023-03-23T13:23:20;14.10;99.90
52415;DHT22;38340;52.964;6.086;2023-03-23T13:26:02;14.00;99.90
52415;DHT22;38340;52.964;6.086;2023-03-23T13:28:51;14.00;1.00
52415;DHT22;38340;52.964;6.086;2023-03-23T13:31:36;14.00;53.30
52415;DHT22;38340;52.964;6.086;2023-03-23T13:34:06;14.10;1.00
52415;DHT22;38340;52.964;6.086;2023-03-23T13:36:38;14.10;1.00
52415;DHT22;38340;52.964;6.086;2023-03-23T13:39:16;14.20;99.90
52415;DHT22;38340;52.964;6.086;2023-03-23T13:50:09;14.20;1.00
52415;DHT22;38340;52.964;6.086;2023-03-23T13:57:54;14.40;99.90
52415;DHT22;38340;52.964;6.086;2023-03-23T14:08:47;14.30;1.00
52415;DHT22;38340;52.964;6.086;2023-03-23T14:14:03;14.50;1.00
52415;DHT22;38340;52.964;6.086;2023-03-23T14:16:40;14.40;99.90
52415;DHT22;38340;52.964;6.086;2023-03-23T14:19:27;14.30;1.00
52415;DHT22;38340;52.964;6.086;2023-03-23T14:22:01;14.30;1.00
52415;DHT22;38340;52.964;6.086;2023-03-23T14:24:32;14.30;1.00
52415;DHT22;38340;52.964;6.086;2023-03-23T14:27:22;14.40;44.80
52415;DHT22;38340;52.964;6.086;2023-03-23T14:30:09;14.40;1.00
52415;DHT22;38340;52.964;6.086;2023-03-23T14:32:37;14.30;1.00
52415;DHT22;38340;52.964;6.086;2023-03-23T14:35:23;14.40;87.30
52415;DHT22;38340;52.964;6.086;2023-03-23T14:37:50;14.30;12.30
52415;DHT22;38340;52.964;6.086;2023-03-23T14:40:17;14.20;99.90
52415;DHT22;38340;52.964;6.086;2023-03-23T14:42:44;14.20;99.90
52415;DHT22;38340;52.964;6.086;2023-03-23T14:45:15;14.10;99.90
52415;DHT22;38340;52.964;6.086;2023-03-23T14:48:01;14.10;99.90
52415;DHT22;38340;52.964;6.086;2023-03-23T14:50:39;14.10;99.90
52415;DHT22;38340;52.964;6.086;2023-03-23T14:53:36;14.10;99.90
52415;DHT22;38340;52.964;6.086;2023-03-23T14:56:11;14.10;99.90
52415;DHT22;38340;52.964;6.086;2023-03-23T14:58:37;14.00;99.90
52415;DHT22;38340;52.964;6.086;2023-03-23T15:01:09;14.00;99.90
52415;DHT22;38340;52.964;6.086;2023-03-23T15:03:39;13.90;99.90
52415;DHT22;38340;52.964;6.086;2023-03-23T15:06:15;14.00;1.00
52415;DHT22;38340;52.964;6.086;2023-03-23T15:08:41;14.00;99.90
52415;DHT22;38340;52.964;6.086;2023-03-23T15:13:45;14.10;1.00
52415;DHT22;38340;52.964;6.086;2023-03-23T15:16:20;14.10;99.90
52415;DHT22;38340;52.964;6.086;2023-03-23T15:18:50;14.10;99.90
52415;DHT22;38340;52.964;6.086;2023-03-23T15:21:35;14.10;99.90
52415;DHT22;38340;52.964;6.086;2023-03-23T15:24:02;13.90;1.00
52415;DHT22;38340;52.964;6.086;2023-03-23T15:26:44;14.00;1.00
52415;DHT22;38340;52.964;6.086;2023-03-23T15:31:47;13.80;91.60
52415;DHT22;38340;52.964;6.086;2023-03-23T15:34:29;13.80;99.90
52415;DHT22;38340;52.964;6.086;2023-03-23T15:37:04;13.80;99.90
52415;DHT22;38340;52.964;6.086;2023-03-23T15:39:31;13.80;1.00
52415;DHT22;38340;52.964;6.086;2023-03-23T15:41:59;13.80;99.90
52415;DHT22;38340;52.964;6.086;2023-03-23T15:44:31;13.80;1.00
52415;DHT22;38340;52.964;6.086;2023-03-23T15:47:33;13.80;2.60
52415;DHT22;38340;52.964;6.086;2023-03-23T15:50:12;13.90;99.90
52415;DHT22;38340;52.964;6.086;2023-03-23T15:52:40;13.80;99.90
52415;DHT22;38340;52.964;6.086;2023-03-23T15:57:45;13.80;99.90
52415;DHT22;38340;52.964;6.086;2023-03-23T16:00:11;13.80;99.90
52415;DHT22;38340;52.964;6.086;2023-03-23T16:02:37;13.70;77.40
52415;DHT22;38340;52.964;6.086;2023-03-23T16:05:03;13.70;99.90
52415;DHT22;38340;52.964;6.086;2023-03-23T16:07:29;13.60;79.10
52415;DHT22;38340;52.964;6.086;2023-03-23T16:09:55;13.70;99.90
52415;DHT22;38340;52.964;6.086;2023-03-23T16:12:21;13.70;4.60
52415;DHT22;38340;52.964;6.086;2023-03-23T16:14:47;13.60;91.00
52415;DHT22;38340;52.964;6.086;2023-03-23T16:17:16;13.60;1.00
52415;DHT22;38340;52.964;6.086;2023-03-23T16:19:42;13.50;1.00
52415;DHT22;38340;52.964;6.086;2023-03-23T16:22:08;13.50;1.80
52415;DHT22;38340;52.964;6.086;2023-03-23T16:24:34;13.60;1.00
52415;DHT22;38340;52.964;6.086;2023-03-23T16:27:00;13.60;1.00
52415;DHT22;38340;52.964;6.086;2023-03-23T16:29:26;13.50;1.00
52415;DHT22;38340;52.964;6.086;2023-03-23T16:31:52;13.40;1.00
52415;DHT22;38340;52.964;6.086;2023-03-23T16:34:18;13.30;1.00
52415;DHT22;38340;52.964;6.086;2023-03-23T16:36:43;13.30;41.60
52415;DHT22;38340;52.964;6.086;2023-03-23T16:39:12;13.30;62.70
52415;DHT22;38340;52.964;6.086;2023-03-23T16:41:38;13.20;99.90
52415;DHT22;38340;52.964;6.086;2023-03-23T16:44:05;13.20;99.90
52415;DHT22;38340;52.964;6.086;2023-03-23T16:46:31;13.20;99.90
52415;DHT22;38340;52.964;6.086;2023-03-23T16:48:56;13.10;99.90
52415;DHT22;38340;52.964;6.086;2023-03-23T16:51:22;13.10;99.90
52415;DHT22;38340;52.964;6.086;2023-03-23T16:53:48;13.00;99.90
52415;DHT22;38340;52.964;6.086;2023-03-23T16:56:14;12.90;99.90
52415;DHT22;38340;52.964;6.086;2023-03-23T16:58:39;12.80;99.90
52415;DHT22;38340;52.964;6.086;2023-03-23T17:01:06;12.80;99.90
52415;DHT22;38340;52.964;6.086;2023-03-23T17:03:32;12.70;99.90
52415;DHT22;38340;52.964;6.086;2023-03-23T17:05:59;12.70;99.90
52415;DHT22;38340;52.964;6.086;2023-03-23T17:08:26;12.70;1.00
52415;DHT22;38340;52.964;6.086;2023-03-23T17:10:51;12.70;1.00
52415;DHT22;38340;52.964;6.086;2023-03-23T17:13:17;12.60;1.00
52415;DHT22;38340;52.964;6.086;2023-03-23T17:15:44;12.60;1.00
52415;DHT22;38340;52.964;6.086;2023-03-23T17:18:10;12.60;1.00
52415;DHT22;38340;52.964;6.086;2023-03-23T17:20:37;12.50;1.00
52415;DHT22;38340;52.964;6.086;2023-03-23T17:23:03;12.50;1.00
52415;DHT22;38340;52.964;6.086;2023-03-23T17:25:29;12.50;1.00
52415;DHT22;38340;52.964;6.086;2023-03-23T17:27:56;12.40;1.00
52415;DHT22;38340;52.964;6.086;2023-03-23T17:30:22;12.40;1.00
52415;DHT22;38340;52.964;6.086;2023-03-23T17:32:48;12.30;8.80
52415;DHT22;38340;52.964;6.086;2023-03-23T17:35:14;12.30;19.20
52415;DHT22;38340;52.964;6.086;2023-03-23T17:37:40;12.30;34.60